Página principal
METAR-TAF:

METAR-TAF

Aeroportos :

Duchambe, Tadjiquistão

latitude: 38-33N, longitude: 068-47E, altura: 803 m

Observação actual do tempo

O boletim foi feito há 44 minutos, às 13:00 UTC
Vento 6 kt de es-nordeste
Temperatura 7°C
Humidade 36%
Pressão 1025 hPa
Visibilidade: 9000 m

METAR: UTDD 161300Z 07003MPS 9000 NSC 07/M07 Q1025 R09/D NOSIG RMK QFE700/0933

Hora: 18:44 (13:44 UTC)

Previsão

O boletim foi feito há 1 hora e 44 minutos, às 12:00 UTC
Previsão válida de 16 às 13 UTC a 17 às 01 UTC
Vento 10 kt de es-nordeste
Visibilidade: 6000 m
Poucas nuvensa uma altura de 6600 ft
Nuvens dispersasa uma altura de 15000 ft
Temporariamente
de 16 às 13 UTC a 17 às 01 UTC
Vento 4 kt com direcção variável
Visibilidade: 3100 m
neblina, fumo

TAF: UTDD 161200Z 1613/1701 07005MPS 6000 FEW066 SCT150 TEMPO 1613/1701 VRB02MPS 3100 BR FU

Observações e previsões do tempo de mais de 4000 aeroportos (mensagens METAR e TAF).

As estações disponíveis são os pontos amarelos e vermelhos sobre o mapa.

Mova o rato sobre o mapa para ver o nome da estação.

Depois clique no ponto para visualizar as observações e previsões meteorológicas.

Para alterar o mapa : clique nos botões verdes com uma cruz preta para aumentar o zoom; no botão verde com uma pitada de zoom; ou nas setas verdes para mapas adjacentes.


METAR-TAF: